Time;durP1;ratioP1;P1;durP2;ratioP2;P2;SDS_P1;SDS_P2;PMS_P1;PMS_P2;Temp;Humidity;BMP_temperature;BMP_pressure;BME280_temperature;BME280_humidity;BME280_pressure;Samples;Min_cycle;Max_cycle;Signal;HPM_P1;HPM_P2
2022/08/08 00:01:50;;;;;;;3.88;2.60;;;17.70;64.80;;;;;;4999980;28;20061;-67
2022/08/08 00:04:44;;;;;;;3.85;2.30;;;17.70;64.70;;;;;;5002096;28;20010;-67
2022/08/08 00:07:38;;;;;;;3.90;2.45;;;17.70;64.80;;;;;;5002233;28;20033;-67
2022/08/08 00:10:17;;;;;;;3.03;2.33;;;17.60;65.00;;;;;;5000742;28;20025;-66
2022/08/08 00:12:51;;;;;;;4.82;2.80;;;17.60;65.10;;;;;;5001144;28;20026;-67
2022/08/08 00:15:26;;;;;;;3.00;2.35;;;17.50;65.50;;;;;;4999978;28;20169;-67
2022/08/08 00:17:59;;;;;;;3.25;2.20;;;17.50;65.50;;;;;;4999995;28;20076;-67
2022/08/08 00:20:48;;;;;;;3.58;2.30;;;17.60;65.50;;;;;;5000416;28;20025;-67
2022/08/08 00:23:21;;;;;;;3.85;2.20;;;17.50;65.50;;;;;;4998715;28;20022;-67
2022/08/08 00:25:55;;;;;;;3.13;2.40;;;17.50;65.70;;;;;;5003691;28;20066;-67
2022/08/08 00:28:34;;;;;;;2.92;2.63;;;17.50;65.80;;;;;;5009179;28;20040;-66
2022/08/08 00:31:01;;;;;;;3.58;2.47;;;17.50;65.90;;;;;;5005195;28;20046;-67
2022/08/08 00:33:44;;;;;;;2.90;2.13;;;17.50;66.00;;;;;;5002325;28;20026;-68
2022/08/08 00:36:26;;;;;;;4.45;2.40;;;17.50;66.00;;;;;;5001378;28;20432;-67
2022/08/08 00:38:55;;;;;;;;;;;17.50;66.70;;;;;;5002211;28;20033;-67
2022/08/08 00:41:42;;;;;;;3.22;2.40;;;17.50;65.90;;;;;;4999815;28;19972;-67
2022/08/08 00:44:29;;;;;;;3.10;2.33;;;17.40;66.00;;;;;;5000967;28;20018;-67
2022/08/08 00:47:18;;;;;;;2.58;2.20;;;17.40;66.10;;;;;;5001300;28;20115;-67
2022/08/08 00:50:20;;;;;;;3.15;2.50;;;17.40;66.00;;;;;;4999645;28;20097;-67
2022/08/08 00:53:20;;;;;;;3.58;2.63;;;17.40;66.20;;;;;;5000765;28;20428;-67
2022/08/08 00:55:45;;;;;;;3.15;2.25;;;17.40;66.30;;;;;;5000796;28;20031;-67
2022/08/08 00:58:33;;;;;;;3.20;2.30;;;17.40;66.30;;;;;;5001551;28;20407;-67
2022/08/08 01:01:09;;;;;;;3.90;2.15;;;17.40;66.30;;;;;;4999516;28;20023;-67
2022/08/08 01:04:08;;;;;;;3.58;2.30;;;17.40;66.40;;;;;;4997752;28;20029;-67
2022/08/08 01:07:11;;;;;;;2.55;2.13;;;17.40;66.50;;;;;;5001207;28;20540;-68
2022/08/08 01:10:08;;;;;;;4.13;3.03;;;17.40;66.40;;;;;;4998134;28;20034;-68
2022/08/08 01:12:52;;;;;;;3.58;2.40;;;17.40;66.60;;;;;;5000927;28;20050;-67
2022/08/08 01:15:36;;;;;;;3.92;2.42;;;17.30;66.70;;;;;;4999455;28;20731;-68
2022/08/08 01:18:32;;;;;;;3.10;2.67;;;17.30;66.70;;;;;;4999597;28;20096;-68
2022/08/08 01:21:28;;;;;;;2.97;2.60;;;17.30;66.90;;;;;;4999601;28;20493;-68
2022/08/08 01:24:05;;;;;;;3.20;2.55;;;17.30;67.00;;;;;;5000819;28;20057;-68
2022/08/08 01:26:43;;;;;;;3.00;2.40;;;17.20;67.10;;;;;;5000887;28;20516;-68
2022/08/08 01:29:34;;;;;;;3.67;2.70;;;17.30;67.20;;;;;;5000870;28;20026;-67
2022/08/08 01:32:08;;;;;;;3.92;2.47;;;17.20;67.20;;;;;;5000078;28;20550;-67
2022/08/08 01:34:49;;;;;;;3.85;2.65;;;17.20;67.80;;;;;;5000110;28;20065;-67
2022/08/08 01:37:41;;;;;;;3.17;2.58;;;17.20;67.30;;;;;;5000265;28;20022;-66
2022/08/08 01:40:31;;;;;;;3.95;2.72;;;17.20;67.40;;;;;;4991238;28;20041;-67
2022/08/08 01:43:13;;;;;;;2.78;2.10;;;17.20;67.50;;;;;;4991471;28;20049;-67
2022/08/08 01:46:01;;;;;;;4.90;2.60;;;17.20;67.60;;;;;;4991214;28;20023;-67
2022/08/08 01:48:58;;;;;;;3.08;2.53;;;17.20;67.70;;;;;;4991323;28;20068;-67
2022/08/08 01:51:55;;;;;;;5.00;2.60;;;17.10;67.90;;;;;;4990683;28;20062;-67
2022/08/08 01:54:34;;;;;;;3.08;2.50;;;17.10;67.90;;;;;;4991156;28;20034;-67
2022/08/08 01:57:31;;;;;;;3.20;2.70;;;17.10;68.00;;;;;;4990386;28;20030;-66
2022/08/08 02:00:09;;;;;;;3.70;2.60;;;17.10;68.00;;;;;;4991039;28;20034;-67
2022/08/08 02:02:53;;;;;;;4.53;2.30;;;17.10;68.20;;;;;;4990072;28;20477;-67
2022/08/08 02:05:41;;;;;;;2.33;2.10;;;17.10;68.30;;;;;;4990974;28;20038;-66
2022/08/08 02:08:25;;;;;;;3.38;1.55;;;17.10;68.20;;;;;;4990823;28;20431;-67
2022/08/08 02:11:22;;;;;;;4.07;2.92;;;17.00;68.30;;;;;;4990338;28;20033;-67
2022/08/08 02:14:00;;;;;;;4.80;3.47;;;16.90;69.10;;;;;;4989947;28;20110;-67
2022/08/08 02:16:52;;;;;;;3.22;2.75;;;16.80;69.70;;;;;;4990214;28;20037;-67
2022/08/08 02:19:27;;;;;;;3.28;2.70;;;16.80;69.80;;;;;;4990098;28;20106;-67
2022/08/08 02:25:19;;;;;;;5.00;2.67;;;16.80;69.60;;;;;;4991367;28;20080;-67
2022/08/08 02:27:58;;;;;;;3.22;2.60;;;16.90;69.30;;;;;;4989466;28;20686;-67
2022/08/08 02:31:07;;;;;;;3.92;2.55;;;16.90;69.10;;;;;;4990818;28;20029;-67
2022/08/08 02:33:51;;;;;;;3.38;2.58;;;16.90;69.10;;;;;;4990651;28;20019;-67
2022/08/08 02:36:30;;;;;;;2.92;1.83;;;16.90;69.00;;;;;;4990484;28;20033;-67
2022/08/08 02:39:21;;;;;;;5.93;3.38;;;16.80;69.10;;;;;;4988937;28;20045;-67
2022/08/08 02:42:10;;;;;;;4.05;3.28;;;16.70;70.00;;;;;;4990544;28;20084;-67
2022/08/08 02:44:36;;;;;;;4.22;2.72;;;16.70;70.40;;;;;;4989306;28;20033;-67
2022/08/08 02:47:23;;;;;;;3.53;2.92;;;16.70;70.20;;;;;;4989897;28;20022;-67
2022/08/08 02:50:00;;;;;;;5.78;2.90;;;16.60;70.20;;;;;;4989959;28;20034;-66
2022/08/08 02:53:11;;;;;;;4.72;3.20;;;16.70;70.20;;;;;;4990235;28;20034;-67
2022/08/08 02:56:08;;;;;;;4.25;2.60;;;16.70;70.00;;;;;;4989939;28;20105;-66
2022/08/08 02:58:58;;;;;;;7.22;2.60;;;16.70;69.80;;;;;;4990227;28;20030;-66
2022/08/08 03:01:38;;;;;;;3.92;2.90;;;16.70;69.60;;;;;;4990305;28;20066;-66
2022/08/08 03:04:38;;;;;;;4.15;2.63;;;16.70;69.60;;;;;;4990283;28;20414;-67
2022/08/08 03:07:40;;;;;;;4.10;2.60;;;16.70;69.60;;;;;;4990183;28;20491;-66
2022/08/08 03:10:39;;;;;;;2.90;2.60;;;16.80;69.60;;;;;;4990316;28;20029;-66
2022/08/08 03:13:35;;;;;;;3.00;2.42;;;16.70;69.50;;;;;;4991314;28;20400;-66
2022/08/08 03:16:32;;;;;;;3.53;2.63;;;16.70;69.50;;;;;;4993449;28;20026;-66
2022/08/08 03:19:35;;;;;;;3.72;2.50;;;16.70;69.60;;;;;;4992110;28;20019;-67
2022/08/08 03:22:00;;;;;;;3.53;2.50;;;16.60;69.60;;;;;;4993230;28;20023;-67
2022/08/08 03:24:26;;;;;;;3.97;2.45;;;16.60;69.70;;;;;;4993262;28;20061;-66
2022/08/08 03:27:02;;;;;;;3.58;2.60;;;16.50;69.70;;;;;;4993622;28;20033;-67
2022/08/08 03:29:36;;;;;;;3.08;2.60;;;16.50;70.30;;;;;;4993819;28;20022;-65
2022/08/08 03:34:47;;;;;;;2.78;2.42;;;16.40;69.80;;;;;;4993572;28;20168;-66
2022/08/08 03:37:17;;;;;;;3.55;2.88;;;16.40;69.90;;;;;;4993427;28;20023;-67
2022/08/08 03:39:43;;;;;;;5.25;2.88;;;16.30;70.00;;;;;;4993354;28;20035;-67
2022/08/08 03:42:15;;;;;;;2.90;2.60;;;16.40;70.00;;;;;;4993495;28;20026;-67
2022/08/08 03:44:41;;;;;;;2.78;2.40;;;16.30;70.00;;;;;;4993288;28;20421;-66
2022/08/08 03:47:06;;;;;;;3.22;2.40;;;16.30;70.00;;;;;;4993580;28;20220;-66
2022/08/08 03:49:32;;;;;;;4.60;2.50;;;16.30;70.10;;;;;;4993239;28;20040;-66
2022/08/08 03:51:57;;;;;;;3.28;2.35;;;16.30;70.10;;;;;;4993624;28;20026;-67
2022/08/08 03:54:24;;;;;;;5.30;2.35;;;16.30;70.10;;;;;;4993344;28;20047;-67
2022/08/08 03:56:50;;;;;;;4.50;3.00;;;16.30;70.30;;;;;;4993620;28;20029;-67
2022/08/08 03:59:17;;;;;;;3.28;2.90;;;16.30;70.40;;;;;;5008459;28;20033;-67
2022/08/08 04:01:43;;;;;;;4.95;2.80;;;16.30;70.50;;;;;;4993531;28;20019;-67
2022/08/08 04:04:09;;;;;;;3.63;2.80;;;16.30;70.50;;;;;;4993339;28;20026;-67
2022/08/08 04:06:35;;;;;;;3.35;2.75;;;16.30;70.60;;;;;;4992239;28;20100;-67
2022/08/08 04:09:04;;;;;;;4.18;3.03;;;16.20;70.60;;;;;;4993671;28;20473;-67
2022/08/08 04:11:33;;;;;;;3.30;2.90;;;16.20;71.00;;;;;;4991684;28;20113;-66
2022/08/08 04:13:58;;;;;;;3.80;3.00;;;16.20;71.20;;;;;;4992892;28;20382;-66
2022/08/08 04:16:27;;;;;;;4.45;2.80;;;16.20;71.20;;;;;;4992604;28;20023;-66
2022/08/08 04:18:53;;;;;;;3.25;2.58;;;16.10;71.30;;;;;;4992577;28;20413;-66
2022/08/08 04:21:18;;;;;;;5.05;2.90;;;16.10;71.20;;;;;;4992541;28;20019;-67
2022/08/08 04:23:44;;;;;;;4.03;3.08;;;16.10;71.30;;;;;;4992417;28;20018;-66
2022/08/08 04:26:10;;;;;;;3.42;2.70;;;16.10;71.40;;;;;;4991924;28;20628;-67
2022/08/08 04:28:36;;;;;;;4.07;3.03;;;16.00;71.50;;;;;;4992747;28;20049;-66
2022/08/08 04:31:01;;;;;;;3.45;3.03;;;16.00;71.60;;;;;;4992676;28;20481;-66
2022/08/08 04:33:27;;;;;;;3.47;2.70;;;16.00;71.70;;;;;;4992277;28;20505;-66
2022/08/08 04:35:53;;;;;;;4.65;2.90;;;15.90;71.70;;;;;;4992434;28;20030;-66
2022/08/08 04:38:19;;;;;;;4.72;2.78;;;15.90;71.70;;;;;;4992427;28;20022;-66
2022/08/08 04:40:44;;;;;;;3.65;3.00;;;16.00;71.80;;;;;;4991033;28;20043;-66
2022/08/08 04:43:10;;;;;;;3.70;2.63;;;15.90;71.80;;;;;;4992289;28;20053;-67
2022/08/08 04:45:35;;;;;;;5.60;2.97;;;15.90;71.90;;;;;;4992278;28;20027;-66
2022/08/08 04:48:02;;;;;;;4.68;3.00;;;15.90;72.00;;;;;;4991969;28;20029;-67
2022/08/08 04:50:27;;;;;;;3.05;2.65;;;15.90;72.10;;;;;;4992167;28;20514;-67
2022/08/08 04:52:54;;;;;;;3.72;2.80;;;15.90;72.00;;;;;;4992148;28;20025;-67
2022/08/08 04:55:19;;;;;;;5.85;3.10;;;15.90;72.20;;;;;;4991939;28;20401;-67
2022/08/08 04:57:45;;;;;;;7.05;3.40;;;15.90;72.40;;;;;;4992158;28;20022;-67
2022/08/08 05:00:11;;;;;;;3.10;2.80;;;15.90;72.40;;;;;;4992023;28;20019;-67
2022/08/08 05:02:37;;;;;;;3.47;2.65;;;15.90;72.50;;;;;;4991837;28;20562;-67
2022/08/08 05:05:03;;;;;;;3.92;3.00;;;15.90;72.40;;;;;;4991644;28;20093;-67
2022/08/08 05:07:28;;;;;;;3.22;2.85;;;15.90;72.40;;;;;;4991899;28;20030;-67
2022/08/08 05:09:54;;;;;;;3.60;2.58;;;16.00;72.50;;;;;;4991544;28;20123;-66
2022/08/08 05:12:20;;;;;;;5.43;2.95;;;16.00;72.60;;;;;;4991632;28;20022;-66
2022/08/08 05:14:45;;;;;;;3.88;2.72;;;16.00;72.70;;;;;;4991329;28;20028;-66
2022/08/08 05:17:11;;;;;;;4.30;2.35;;;16.00;72.70;;;;;;4991482;28;20034;-65
2022/08/08 05:19:36;;;;;;;2.58;2.30;;;16.10;72.50;;;;;;4991383;28;20149;-66
2022/08/08 05:22:04;;;;;;;3.80;2.40;;;16.10;72.40;;;;;;4991529;28;20098;-66
2022/08/08 05:24:30;;;;;;;3.78;2.28;;;16.20;72.50;;;;;;4991592;28;20018;-66
2022/08/08 05:26:55;;;;;;;4.15;2.38;;;16.20;72.50;;;;;;4991487;28;20161;-67
2022/08/08 05:29:21;;;;;;;2.40;2.10;;;16.40;72.60;;;;;;4991337;28;20051;-67
2022/08/08 05:31:46;;;;;;;2.55;1.98;;;17.20;72.40;;;;;;4989724;28;20030;-66
2022/08/08 05:34:40;;;;;;;3.30;2.22;;;18.50;68.90;;;;;;4991414;28;20055;-67
2022/08/08 05:37:07;;;;;;;3.08;2.08;;;19.80;65.30;;;;;;4991129;28;20037;-67
2022/08/08 05:39:33;;;;;;;2.53;1.50;;;20.80;62.50;;;;;;5006393;28;20166;-67
2022/08/08 05:41:59;;;;;;;2.33;1.60;;;21.70;60.10;;;;;;4991173;28;20037;-67
2022/08/08 05:44:29;;;;;;;2.10;1.88;;;22.50;58.20;;;;;;4991106;28;20078;-67
2022/08/08 05:46:57;;;;;;;2.30;1.60;;;23.30;56.30;;;;;;4991302;28;20105;-67
2022/08/08 05:49:23;;;;;;;3.17;1.65;;;23.80;54.80;;;;;;5006457;28;20496;-67
2022/08/08 05:51:49;;;;;;;3.10;1.63;;;24.30;53.70;;;;;;4991272;28;20061;-67
2022/08/08 05:54:16;;;;;;;2.67;1.48;;;24.80;52.60;;;;;;4990992;28;20030;-67
2022/08/08 05:56:43;;;;;;;2.85;1.63;;;25.10;51.70;;;;;;4990985;28;20029;-67
2022/08/08 05:59:33;;;;;;;3.63;1.60;;;25.60;50.90;;;;;;4990979;28;20093;-67
2022/08/08 06:01:59;;;;;;;2.65;1.35;;;26.20;49.70;;;;;;4991098;28;20033;-67
2022/08/08 06:04:28;;;;;;;1.98;1.30;;;26.70;48.90;;;;;;4990753;28;20026;-67
2022/08/08 06:06:56;;;;;;;3.47;1.50;;;26.80;48.10;;;;;;4991049;28;20026;-67
2022/08/08 06:09:27;;;;;;;2.05;1.42;;;27.10;47.30;;;;;;4990636;28;20026;-67
2022/08/08 06:11:58;;;;;;;2.22;1.20;;;27.20;46.90;;;;;;4991051;28;20030;-66
2022/08/08 06:14:25;;;;;;;2.03;1.00;;;27.50;46.40;;;;;;4990643;28;20059;-67
2022/08/08 06:16:52;;;;;;;1.40;1.00;;;27.70;46.20;;;;;;4990956;28;20027;-66
2022/08/08 06:19:18;;;;;;;1.73;1.20;;;27.90;45.70;;;;;;4990471;28;20029;-67
2022/08/08 06:21:47;;;;;;;1.90;1.00;;;28.10;45.20;;;;;;4990961;28;20050;-66
2022/08/08 06:24:13;;;;;;;1.98;1.00;;;28.40;45.20;;;;;;4991043;28;20018;-67
2022/08/08 06:26:43;;;;;;;1.45;0.80;;;28.60;44.20;;;;;;4990946;28;20031;-67
2022/08/08 06:29:12;;;;;;;2.55;1.00;;;28.60;44.20;;;;;;4990985;28;20485;-67
2022/08/08 06:31:39;;;;;;;2.15;1.00;;;28.90;43.90;;;;;;4990590;28;20089;-67
2022/08/08 06:34:05;;;;;;;2.80;1.10;;;28.90;43.40;;;;;;4990673;28;20029;-67
2022/08/08 06:36:35;;;;;;;1.92;0.98;;;29.00;43.20;;;;;;4990453;28;20030;-67
2022/08/08 06:39:02;;;;;;;2.25;1.25;;;29.10;43.10;;;;;;4990835;28;20023;-66
2022/08/08 06:41:32;;;;;;;1.35;0.95;;;29.00;43.00;;;;;;4990268;28;20109;-66
2022/08/08 06:44:01;;;;;;;1.85;1.00;;;29.10;43.30;;;;;;4990607;28;20018;-66
2022/08/08 06:46:27;;;;;;;1.77;0.90;;;29.00;43.40;;;;;;4990273;28;20099;-66
2022/08/08 06:48:53;;;;;;;1.05;0.88;;;29.10;43.40;;;;;;4993021;28;20541;-66
2022/08/08 06:51:20;;;;;;;1.80;1.10;;;29.20;43.30;;;;;;5009060;28;20046;-66
2022/08/08 06:53:46;;;;;;;1.60;0.80;;;29.30;43.90;;;;;;5014380;28;20057;-67
2022/08/08 06:56:13;;;;;;;2.10;0.90;;;29.10;43.30;;;;;;5014227;28;20073;-67
2022/08/08 06:58:38;;;;;;;2.40;1.13;;;28.90;43.50;;;;;;5014142;28;20026;-67
2022/08/08 07:01:09;;;;;;;2.47;1.13;;;28.70;43.70;;;;;;5010878;28;20535;-67
2022/08/08 07:03:57;;;;;;;1.43;0.93;;;28.50;44.10;;;;;;5013633;28;20029;-66
2022/08/08 07:06:26;;;;;;;1.77;1.00;;;28.50;44.20;;;;;;5013762;28;20314;-66
2022/08/08 07:08:57;;;;;;;4.03;1.40;;;28.60;43.90;;;;;;5013523;28;20075;-66
2022/08/08 07:11:29;;;;;;;2.47;1.20;;;28.40;43.90;;;;;;5013790;28;20070;-66
2022/08/08 07:14:00;;;;;;;4.82;1.38;;;28.50;43.70;;;;;;5013741;28;20026;-66
2022/08/08 07:17:05;;;;;;;4.03;1.30;;;28.30;43.70;;;;;;5007441;28;20037;-66
2022/08/08 07:19:49;;;;;;;2.28;1.20;;;28.50;43.70;;;;;;5013428;28;20036;-66
2022/08/08 07:22:22;;;;;;;2.38;1.10;;;28.80;42.90;;;;;;5013016;28;20018;-67
2022/08/08 07:24:51;;;;;;;1.83;1.15;;;29.00;42.50;;;;;;5013245;28;20026;-66
2022/08/08 07:27:22;;;;;;;2.08;1.17;;;29.00;42.40;;;;;;5013396;28;20022;-67
2022/08/08 07:29:47;;;;;;;2.33;1.20;;;29.00;42.10;;;;;;5013220;28;20030;-67
2022/08/08 07:32:14;;;;;;;2.45;1.10;;;29.00;42.30;;;;;;5013207;28;20107;-66
2022/08/08 07:34:40;;;;;;;2.25;1.20;;;28.90;42.50;;;;;;5013099;28;20033;-67
2022/08/08 07:37:07;;;;;;;1.92;1.00;;;28.90;42.60;;;;;;5013074;28;20026;-67
2022/08/08 07:39:34;;;;;;;2.28;1.00;;;28.70;42.90;;;;;;5009864;28;20029;-67
2022/08/08 07:42:00;;;;;;;3.00;1.20;;;28.70;43.10;;;;;;5007529;28;20404;-67
2022/08/08 07:44:27;;;;;;;2.45;0.90;;;28.60;43.00;;;;;;5002957;28;20022;-67
2022/08/08 07:46:53;;;;;;;2.10;1.10;;;28.10;43.50;;;;;;5000839;28;20022;-66
2022/08/08 07:49:19;;;;;;;2.20;0.95;;;27.70;44.30;;;;;;5001716;28;20041;-68
2022/08/08 07:51:45;;;;;;;2.65;1.00;;;27.30;45.00;;;;;;5002303;28;20753;-67
2022/08/08 07:54:20;;;;;;;2.47;1.20;;;27.20;45.60;;;;;;5000592;28;20029;-68
2022/08/08 07:57:04;;;;;;;1.92;1.00;;;26.90;45.90;;;;;;5003227;28;20022;-68
2022/08/08 07:59:36;;;;;;;2.50;1.30;;;26.40;46.30;;;;;;5010013;28;20033;-67
2022/08/08 08:02:05;;;;;;;2.58;1.23;;;25.90;46.90;;;;;;5009335;28;20014;-67
2022/08/08 08:04:42;;;;;;;1.80;0.98;;;25.60;47.50;;;;;;5012704;28;20374;-67
2022/08/08 08:07:09;;;;;;;1.75;1.10;;;25.40;47.90;;;;;;5009448;28;20022;-68
2022/08/08 08:09:38;;;;;;;3.85;1.20;;;25.00;48.00;;;;;;5011719;28;20508;-67
2022/08/08 08:12:06;;;;;;;1.27;1.10;;;24.90;48.60;;;;;;5001840;28;20038;-67
2022/08/08 08:14:57;;;;;;;1.90;0.75;;;24.90;48.80;;;;;;5005104;28;20018;-67
2022/08/08 08:17:24;;;;;;;2.10;0.80;;;24.90;49.00;;;;;;5012451;28;20048;-67
2022/08/08 08:20:01;;;;;;;2.55;1.30;;;24.80;49.00;;;;;;5011984;28;20022;-68
2022/08/08 08:22:27;;;;;;;2.25;1.00;;;24.80;48.70;;;;;;5009031;28;20026;-67
2022/08/08 08:24:52;;;;;;;1.70;1.00;;;24.60;48.50;;;;;;5001242;28;20390;-67
2022/08/08 08:27:20;;;;;;;1.83;0.90;;;24.50;48.80;;;;;;5001762;28;20054;-67
2022/08/08 08:29:46;;;;;;;2.08;0.90;;;24.50;48.80;;;;;;5000007;28;20030;-67
2022/08/08 08:32:12;;;;;;;1.67;1.00;;;24.50;48.90;;;;;;5002469;28;20022;-68
2022/08/08 08:34:37;;;;;;;2.97;1.13;;;24.50;49.00;;;;;;5000666;28;20040;-67
2022/08/08 08:37:03;;;;;;;1.95;0.80;;;24.60;48.70;;;;;;5002199;28;20034;-66
2022/08/08 08:39:29;;;;;;;1.55;0.90;;;24.60;48.60;;;;;;5008855;28;20085;-67
2022/08/08 08:41:56;;;;;;;1.58;0.93;;;24.70;48.50;;;;;;4992958;28;20116;-66
2022/08/08 08:44:24;;;;;;;1.55;0.70;;;24.80;48.20;;;;;;5001245;28;20030;-67
2022/08/08 08:46:50;;;;;;;0.77;0.75;;;24.80;47.90;;;;;;5005591;28;20029;-66
2022/08/08 08:49:16;;;;;;;2.13;0.75;;;24.80;47.40;;;;;;5004841;28;20428;-67
2022/08/08 08:51:43;;;;;;;2.40;0.75;;;24.90;47.20;;;;;;5001412;28;20021;-65
2022/08/08 08:54:11;;;;;;;1.30;0.60;;;25.00;46.30;;;;;;5009724;28;20045;-67
2022/08/08 08:56:37;;;;;;;1.20;0.73;;;24.90;46.10;;;;;;5018678;28;20026;-66
2022/08/08 08:59:04;;;;;;;1.00;0.60;;;24.90;46.10;;;;;;5019790;28;20030;-66
2022/08/08 09:01:43;;;;;;;1.27;0.60;;;24.90;45.90;;;;;;5006608;28;20026;-66
2022/08/08 09:04:13;;;;;;;0.90;0.70;;;24.90;46.00;;;;;;5007530;28;20018;-66
2022/08/08 09:06:40;;;;;;;1.13;0.50;;;25.00;45.50;;;;;;5003303;28;20030;-66
2022/08/08 09:09:19;;;;;;;1.88;0.70;;;25.10;45.40;;;;;;5004261;28;20035;-66
2022/08/08 09:11:46;;;;;;;0.88;0.57;;;25.10;45.10;;;;;;5004127;28;20022;-66
2022/08/08 09:14:13;;;;;;;1.10;0.60;;;25.10;45.40;;;;;;5006818;28;20033;-66
2022/08/08 09:16:39;;;;;;;1.85;0.90;;;25.10;45.40;;;;;;5007752;28;20480;-67
2022/08/08 09:19:04;;;;;;;1.05;0.70;;;25.30;45.10;;;;;;5008932;28;20180;-66
2022/08/08 09:21:33;;;;;;;1.20;0.70;;;25.40;44.90;;;;;;5009250;28;20017;-67
2022/08/08 09:24:01;;;;;;;1.25;0.70;;;25.50;44.70;;;;;;5007177;28;20022;-66
2022/08/08 09:26:50;;;;;;;1.27;0.80;;;25.60;44.60;;;;;;5007895;28;20030;-67
2022/08/08 09:29:26;;;;;;;1.00;0.55;;;25.60;44.00;;;;;;5006313;28;20022;-65
2022/08/08 09:31:53;;;;;;;0.85;0.60;;;25.50;44.00;;;;;;5006140;28;20461;-66
2022/08/08 09:34:19;;;;;;;1.20;0.50;;;25.30;44.00;;;;;;5008333;28;20017;-66
2022/08/08 09:36:47;;;;;;;1.85;0.60;;;25.40;44.30;;;;;;5007007;28;20022;-67
2022/08/08 09:39:19;;;;;;;1.40;0.90;;;25.50;44.00;;;;;;5007576;28;20025;-66
2022/08/08 09:41:54;;;;;;;2.05;0.85;;;25.40;44.10;;;;;;5009016;28;20135;-67
2022/08/08 09:44:45;;;;;;;1.02;0.50;;;25.60;44.20;;;;;;5020621;28;20014;-66
2022/08/08 09:47:13;;;;;;;1.05;0.60;;;25.80;44.20;;;;;;5026576;28;20077;-66
2022/08/08 09:49:42;;;;;;;0.85;0.60;;;25.80;44.00;;;;;;5009343;28;20030;-67
2022/08/08 09:52:08;;;;;;;1.10;0.73;;;25.70;44.00;;;;;;5007229;28;20575;-67
2022/08/08 09:54:42;;;;;;;1.25;0.80;;;25.60;43.80;;;;;;5006668;28;20080;-66
2022/08/08 09:57:10;;;;;;;1.35;0.80;;;25.40;43.80;;;;;;5008548;28;20551;-67
2022/08/08 09:59:39;;;;;;;1.77;0.90;;;25.20;43.70;;;;;;5020986;28;20157;-67
2022/08/08 10:02:05;;;;;;;1.15;0.80;;;25.00;44.30;;;;;;5009303;28;20025;-66
2022/08/08 10:04:34;;;;;;;1.48;0.60;;;25.00;44.50;;;;;;5008179;28;20026;-66
2022/08/08 10:07:02;;;;;;;1.38;0.60;;;25.00;44.60;;;;;;5006035;28;20026;-66
2022/08/08 10:09:32;;;;;;;1.58;0.70;;;25.10;44.50;;;;;;5008353;28;20025;-66
2022/08/08 10:12:02;;;;;;;2.03;0.85;;;25.20;44.10;;;;;;5007605;28;20018;-66
2022/08/08 10:14:38;;;;;;;1.75;0.63;;;25.00;44.00;;;;;;5005118;28;20101;-66
2022/08/08 10:17:05;;;;;;;1.02;0.50;;;25.30;44.10;;;;;;5005055;28;20405;-66
2022/08/08 10:19:39;;;;;;;1.50;0.63;;;25.50;43.70;;;;;;5005824;28;20029;-66
2022/08/08 10:22:06;;;;;;;1.45;0.70;;;25.70;43.30;;;;;;5005196;28;20026;-66
2022/08/08 10:24:33;;;;;;;1.10;0.70;;;25.70;43.20;;;;;;5005647;28;20022;-66
2022/08/08 10:27:00;;;;;;;0.90;0.60;;;25.60;43.30;;;;;;5006340;28;20484;-67
2022/08/08 10:29:56;;;;;;;1.15;0.68;;;25.60;43.40;;;;;;5008695;28;20018;-67
2022/08/08 10:32:39;;;;;;;1.08;0.73;;;25.50;44.20;;;;;;5005048;28;20061;-67
2022/08/08 10:35:06;;;;;;;2.10;0.60;;;25.40;43.40;;;;;;5008696;28;20491;-67
2022/08/08 10:37:34;;;;;;;1.27;0.57;;;25.30;43.50;;;;;;5008385;28;20511;-67
2022/08/08 10:40:01;;;;;;;1.30;0.70;;;25.40;43.80;;;;;;5007189;28;20480;-67
2022/08/08 10:42:35;;;;;;;1.48;0.75;;;25.40;43.40;;;;;;5004821;28;20025;-67
2022/08/08 10:45:03;;;;;;;0.85;0.60;;;25.40;43.80;;;;;;5002989;28;20036;-67
2022/08/08 10:47:29;;;;;;;1.08;0.80;;;25.40;43.80;;;;;;5006812;28;20384;-67
2022/08/08 10:49:57;;;;;;;1.45;0.90;;;25.50;43.90;;;;;;5006661;28;20018;-68
2022/08/08 10:52:28;;;;;;;1.13;0.70;;;25.40;43.30;;;;;;5005468;28;20018;-67
2022/08/08 10:54:56;;;;;;;2.80;0.80;;;25.10;43.70;;;;;;5006685;28;20030;-66
2022/08/08 10:57:22;;;;;;;1.50;0.80;;;24.90;43.60;;;;;;5007259;28;20061;-66
2022/08/08 10:59:55;;;;;;;2.20;0.70;;;25.00;44.20;;;;;;5006521;28;20045;-66
2022/08/08 11:02:24;;;;;;;0.88;0.50;;;25.10;44.20;;;;;;5005854;28;20041;-66
2022/08/08 11:04:50;;;;;;;2.72;0.90;;;25.20;44.10;;;;;;5006414;28;20627;-67
2022/08/08 11:07:31;;;;;;;1.05;0.70;;;25.20;44.00;;;;;;5005375;28;20025;-66
2022/08/08 11:10:05;;;;;;;1.60;0.80;;;25.30;44.00;;;;;;5003963;28;20022;-67
2022/08/08 11:12:33;;;;;;;0.65;0.50;;;25.40;44.20;;;;;;5004125;28;20033;-67
2022/08/08 11:15:00;;;;;;;0.85;0.60;;;25.50;44.20;;;;;;5006541;28;20503;-66
2022/08/08 11:17:28;;;;;;;1.83;0.77;;;25.60;44.10;;;;;;5006673;28;20018;-67
2022/08/08 11:19:54;;;;;;;2.25;0.90;;;25.50;43.90;;;;;;5006479;28;20018;-66
2022/08/08 11:22:25;;;;;;;1.35;0.73;;;25.40;43.80;;;;;;5003580;28;20380;-67
2022/08/08 11:24:53;;;;;;;0.70;0.57;;;25.30;44.00;;;;;;5011633;28;21246;-67
2022/08/08 11:27:22;;;;;;;2.72;0.70;;;25.40;44.00;;;;;;5003920;28;20652;-66
2022/08/08 11:29:49;;;;;;;1.65;0.60;;;25.70;43.80;;;;;;5007021;28;20033;-66
2022/08/08 11:32:18;;;;;;;2.50;1.33;;;26.00;43.40;;;;;;5003730;28;20021;-66
2022/08/08 11:34:45;;;;;;;1.98;0.80;;;26.10;42.50;;;;;;5008152;28;20145;-68
2022/08/08 11:37:11;;;;;;;1.02;0.50;;;25.90;42.30;;;;;;5009670;28;20496;-66
2022/08/08 11:39:37;;;;;;;1.17;0.50;;;26.10;42.60;;;;;;5011207;28;20132;-67
2022/08/08 11:42:03;;;;;;;2.15;0.60;;;26.20;42.60;;;;;;5008690;28;20503;-68
2022/08/08 11:44:30;;;;;;;1.38;0.60;;;26.20;42.50;;;;;;5009894;28;20076;-67
2022/08/08 11:46:56;;;;;;;1.52;0.73;;;26.20;42.60;;;;;;5009817;28;20987;-66
2022/08/08 11:49:23;;;;;;;0.68;0.50;;;26.10;42.60;;;;;;5008823;28;20022;-66
2022/08/08 11:51:51;;;;;;;1.55;0.70;;;26.00;42.60;;;;;;5007666;28;20432;-66
2022/08/08 11:54:17;;;;;;;1.77;0.77;;;25.80;42.70;;;;;;5011044;28;20022;-65
2022/08/08 11:56:42;;;;;;;0.70;0.50;;;25.70;43.20;;;;;;5011319;28;20100;-69
2022/08/08 11:59:09;;;;;;;1.48;0.80;;;25.70;43.10;;;;;;5007024;28;20026;-66
2022/08/08 12:01:35;;;;;;;1.33;0.80;;;25.60;43.00;;;;;;5009459;28;20026;-66
2022/08/08 12:04:03;;;;;;;0.75;0.70;;;25.60;43.20;;;;;;5009537;28;20034;-66
2022/08/08 12:06:30;;;;;;;1.42;0.70;;;25.70;43.20;;;;;;5009365;28;20030;-68
2022/08/08 12:09:07;;;;;;;0.98;0.65;;;25.80;42.90;;;;;;5009512;28;20568;-67
2022/08/08 12:11:41;;;;;;;0.85;0.70;;;26.10;42.20;;;;;;5007203;28;20033;-68
2022/08/08 12:14:08;;;;;;;1.08;0.75;;;26.10;41.50;;;;;;5005884;28;20025;-67
2022/08/08 12:16:33;;;;;;;1.45;0.70;;;26.10;41.40;;;;;;5007754;28;20049;-68
2022/08/08 12:19:01;;;;;;;0.93;0.60;;;26.30;41.50;;;;;;5008824;28;20026;-64
2022/08/08 12:21:29;;;;;;;2.47;0.90;;;26.50;41.40;;;;;;5009262;28;20011;-64
2022/08/08 12:24:05;;;;;;;2.35;0.80;;;26.60;41.10;;;;;;5007673;28;20112;-67
2022/08/08 12:26:41;;;;;;;1.23;0.80;;;26.50;41.10;;;;;;5007167;28;20057;-67
2022/08/08 12:29:19;;;;;;;0.85;0.70;;;26.50;41.10;;;;;;5011020;28;20488;-66
2022/08/08 12:31:45;;;;;;;1.10;0.70;;;26.40;40.80;;;;;;5008922;28;20026;-66
2022/08/08 12:34:11;;;;;;;0.85;0.70;;;26.40;40.90;;;;;;5009592;28;20042;-66
2022/08/08 12:36:40;;;;;;;1.08;0.60;;;26.30;40.50;;;;;;5009592;28;20026;-66
2022/08/08 12:39:07;;;;;;;0.98;0.60;;;26.20;40.10;;;;;;5010279;28;20528;-65
2022/08/08 12:41:35;;;;;;;0.98;0.60;;;26.40;40.50;;;;;;5010274;28;20053;-66
2022/08/08 12:44:08;;;;;;;0.65;0.47;;;26.40;39.90;;;;;;5008520;28;20024;-66
2022/08/08 12:46:35;;;;;;;0.90;0.80;;;26.40;40.30;;;;;;5006332;28;20029;-66
2022/08/08 12:49:05;;;;;;;1.08;0.70;;;26.60;40.00;;;;;;5002673;28;20033;-66
2022/08/08 12:51:41;;;;;;;1.05;0.60;;;26.70;39.80;;;;;;5005931;28;20030;-66
2022/08/08 12:54:08;;;;;;;2.63;0.80;;;26.60;39.60;;;;;;5008078;28;20566;-66
2022/08/08 12:56:38;;;;;;;0.70;0.50;;;26.50;39.60;;;;;;5005664;28;20099;-66
2022/08/08 12:59:18;;;;;;;1.55;0.65;;;26.50;39.70;;;;;;5006900;28;20014;-66
2022/08/08 13:02:19;;;;;;;1.52;0.80;;;26.40;39.60;;;;;;5006231;28;20025;-67
2022/08/08 13:04:49;;;;;;;1.20;0.60;;;26.10;39.20;;;;;;5008417;28;20033;-66
2022/08/08 13:07:15;;;;;;;0.73;0.60;;;26.00;39.80;;;;;;5008568;28;20423;-65
2022/08/08 13:09:45;;;;;;;2.25;0.80;;;26.30;39.90;;;;;;5005434;28;20111;-64
2022/08/08 13:12:27;;;;;;;0.88;0.60;;;26.50;39.80;;;;;;5008838;28;20029;-65
2022/08/08 13:14:55;;;;;;;1.42;0.70;;;27.00;39.60;;;;;;5007758;28;20041;-65
2022/08/08 13:17:26;;;;;;;1.38;0.70;;;27.40;39.10;;;;;;5008386;28;20431;-66
2022/08/08 13:19:55;;;;;;;0.70;0.70;;;27.60;38.80;;;;;;5006990;28;20033;-66
2022/08/08 13:22:22;;;;;;;1.17;0.60;;;27.50;38.80;;;;;;5019891;28;20030;-66
2022/08/08 13:24:48;;;;;;;1.15;0.60;;;27.50;39.00;;;;;;5007927;28;20034;-66